Terminal Aerodrome Forecast
Issued by NWS

Home | Current Version | Previous Version | Graphics & Text | Print | Product List | Glossary On
Versions: 1 2 3 4 5 6 7 8 9 10 11 12 13 14 15
000
FTUS43 KBIS 182322
TAFJMS
TAF
KJMS 182322Z 1900/1924 05005KT P6SM FEW100 FEW250
     FM190400 12004KT P6SM FEW110 FEW250
     FM191600 16010KT P6SM VCTS BKN120CB BKN200
     FM192300 13008KT P6SM SCT100=

USA.gov is the U.S. government's official web portal to all federal, state and local government web resources and services.